Time;durP1;ratioP1;P1;durP2;ratioP2;P2;SDS_P1;SDS_P2;PMS_P1;PMS_P2;Temp;Humidity;BMP_temperature;BMP_pressure;BME280_temperature;BME280_humidity;BME280_pressure;Samples;Min_cycle;Max_cycle;Signal;HPM_P1;HPM_P2
2022/09/21 00:00:29;;;;;;;11.90;7.07;;;;;;;8.75;100.00;102346.56;1986229;28;20040;-68
2022/09/21 00:01:30;;;;;;;13.45;6.95;;;;;;;8.71;100.00;102350.97;1986381;28;20376;-68
2022/09/21 00:02:27;;;;;;;13.63;7.32;;;;;;;8.68;100.00;102345.78;1986279;28;20033;-68
2022/09/21 00:03:25;;;;;;;12.40;7.10;;;;;;;8.67;100.00;102344.06;1986375;28;20029;-68
2022/09/21 00:04:22;;;;;;;11.73;7.20;;;;;;;8.63;100.00;102352.78;1986162;28;20053;-68
2022/09/21 00:05:20;;;;;;;18.98;7.68;;;;;;;8.61;100.00;102345.00;1986307;28;20159;-67
2022/09/21 00:06:20;;;;;;;10.88;7.38;;;;;;;8.58;100.00;102344.13;1986107;28;20055;-68
2022/09/21 00:07:18;;;;;;;12.20;7.22;;;;;;;8.56;100.00;102340.72;1986150;28;20029;-68
2022/09/21 00:08:15;;;;;;;17.15;7.78;;;;;;;8.55;100.00;102345.03;1986219;28;20036;-68
2022/09/21 00:09:13;;;;;;;12.00;7.28;;;;;;;8.53;100.00;102348.50;1986282;28;20029;-68
2022/09/21 00:10:11;;;;;;;15.18;7.20;;;;;;;8.49;100.00;102351.13;1986234;28;20111;-68
2022/09/21 00:11:20;;;;;;;14.77;7.60;;;;;;;8.46;100.00;102343.34;1991149;28;20024;-68
2022/09/21 00:12:19;;;;;;;10.10;6.97;;;;;;;8.41;100.00;102347.75;1992837;28;20052;-68
2022/09/21 00:13:18;;;;;;;14.90;7.72;;;;;;;8.39;100.00;102346.91;1986217;28;20104;-68
2022/09/21 00:14:16;;;;;;;11.32;7.55;;;;;;;8.34;100.00;102341.75;1993341;28;20508;-68
2022/09/21 00:15:19;;;;;;;14.80;7.13;;;;;;;8.33;100.00;102349.56;1993412;28;20065;-68
2022/09/21 00:16:16;;;;;;;14.18;7.85;;;;;;;8.29;100.00;102353.94;1986298;28;20051;-68
2022/09/21 00:17:14;;;;;;;14.82;7.53;;;;;;;8.26;100.00;102346.16;1986362;28;20039;-68
2022/09/21 00:18:12;;;;;;;13.73;8.15;;;;;;;8.22;100.00;102352.25;1986352;28;20050;-68
2022/09/21 00:19:11;;;;;;;21.52;9.02;;;;;;;8.19;100.00;102347.94;1993428;28;20044;-68
2022/09/21 00:20:09;;;;;;;18.02;8.40;;;;;;;8.15;100.00;102348.84;1993594;28;20062;-68
2022/09/21 00:21:14;;;;;;;16.35;8.77;;;;;;;8.12;100.00;102347.09;1986789;28;20537;-68
2022/09/21 00:22:11;;;;;;;16.73;8.70;;;;;;;8.09;100.00;102343.69;1986306;28;20589;-68
2022/09/21 00:23:09;;;;;;;17.75;8.77;;;;;;;8.06;100.00;102346.28;1986235;28;20096;-68
2022/09/21 00:24:07;;;;;;;16.27;8.75;;;;;;;8.03;100.00;102352.38;1993495;28;20032;-68
2022/09/21 00:25:05;;;;;;;17.52;8.98;;;;;;;7.99;100.00;102348.97;1993562;28;20039;-68
2022/09/21 00:26:25;;;;;;;13.88;8.82;;;;;;;7.97;100.00;102348.09;1986878;28;20032;-68
2022/09/21 00:27:28;;;;;;;18.70;9.13;;;;;;;7.93;100.00;102346.41;1986192;28;20036;-68
2022/09/21 00:28:26;;;;;;;15.50;8.43;;;;;;;7.89;100.00;102344.69;1993460;28;20032;-68
2022/09/21 00:29:23;;;;;;;16.67;9.35;;;;;;;7.85;100.00;102350.78;1993444;28;20028;-68
2022/09/21 00:30:21;;;;;;;21.05;9.50;;;;;;;7.85;100.00;102343.88;1986975;28;20583;-68
2022/09/21 00:31:19;;;;;;;22.70;9.68;;;;;;;7.83;100.00;102348.19;1986104;28;20560;-68
2022/09/21 00:32:16;;;;;;;20.67;9.50;;;;;;;7.80;100.00;102360.34;1986038;28;20072;-68
2022/09/21 00:33:13;;;;;;;20.85;9.32;;;;;;;7.78;100.00;102356.88;1986209;28;20024;-68
2022/09/21 00:34:11;;;;;;;17.70;8.93;;;;;;;7.76;100.00;102358.66;1986208;28;20139;-68
2022/09/21 00:35:08;;;;;;;17.48;9.40;;;;;;;7.75;100.00;102351.72;1986111;28;20365;-68
2022/09/21 00:36:09;;;;;;;20.95;10.10;;;;;;;7.74;100.00;102358.66;1986147;28;20529;-68
2022/09/21 00:37:08;;;;;;;19.40;10.15;;;;;;;7.72;100.00;102353.47;1986134;28;20032;-68
2022/09/21 00:38:05;;;;;;;18.20;10.00;;;;;;;7.71;100.00;102358.69;1986200;28;20025;-68
2022/09/21 00:39:03;;;;;;;18.65;9.50;;;;;;;7.70;100.00;102357.81;1986205;28;20036;-68
2022/09/21 00:40:02;;;;;;;17.15;9.43;;;;;;;7.72;100.00;102352.59;1986172;28;20064;-68
2022/09/21 00:41:00;;;;;;;18.23;10.07;;;;;;;7.68;100.00;102358.69;1984116;28;20024;-68
2022/09/21 00:41:58;;;;;;;21.17;9.48;;;;;;;7.70;100.00;102359.56;1986096;28;20067;-68
2022/09/21 00:43:14;;;;;;;17.50;9.77;;;;;;;7.74;100.00;102358.66;1993280;28;20028;-68
2022/09/21 00:44:14;;;;;;;16.95;9.68;;;;;;;7.71;100.00;102350.88;1991210;28;20035;-68
2022/09/21 00:45:20;;;;;;;20.88;9.85;;;;;;;7.71;100.00;102356.94;1985615;28;20036;-68
2022/09/21 00:46:30;;;;;;;20.45;10.23;;;;;;;7.72;100.00;102353.47;1986073;28;20051;-68
2022/09/21 00:47:34;;;;;;;22.55;9.68;;;;;;;7.70;100.00;102360.41;1986079;28;20098;-68
2022/09/21 00:48:33;;;;;;;17.50;9.52;;;;;;;7.72;100.00;102353.47;1985962;28;20106;-68
2022/09/21 00:49:34;;;;;;;22.58;10.05;;;;;;;7.78;100.00;102356.88;1986071;28;20086;-68
2022/09/21 00:50:34;;;;;;;15.88;9.43;;;;;;;7.78;100.00;102367.28;1986080;28;20025;-68
2022/09/21 00:51:31;;;;;;;19.98;9.93;;;;;;;7.75;100.00;102362.09;1986055;28;20021;-68
2022/09/21 00:52:36;;;;;;;23.27;9.82;;;;;;;7.75;100.00;102354.31;1986042;28;20031;-68
2022/09/21 00:53:36;;;;;;;24.75;10.20;;;;;;;7.72;100.00;102361.25;1993246;28;20025;-68
2022/09/21 00:54:42;;;;;;;;;;;;;;;7.69;100.00;102357.81;1993764;28;20034;-68
2022/09/21 00:55:49;;;;;;;14.70;8.70;;;;;;;7.66;100.00;102361.28;1985963;28;19919;-68
2022/09/21 00:56:46;;;;;;;18.88;9.73;;;;;;;7.67;100.00;102355.22;1986052;28;20032;-68
2022/09/21 00:57:50;;;;;;;20.95;9.35;;;;;;;7.70;100.00;102357.81;1986016;28;20025;-68
2022/09/21 00:58:52;;;;;;;15.18;9.52;;;;;;;7.71;100.00;102356.94;1986076;28;20388;-68
2022/09/21 00:59:56;;;;;;;21.30;9.95;;;;;;;7.71;100.00;102362.16;1993129;28;20456;-68
2022/09/21 01:00:57;;;;;;;16.42;10.07;;;;;;;7.72;100.00;102353.47;1993273;28;20099;-68
2022/09/21 01:01:55;;;;;;;18.20;9.68;;;;;;;7.75;100.00;102356.91;1985983;28;20035;-68
2022/09/21 01:03:00;;;;;;;18.90;10.43;;;;;;;7.76;100.00;102359.50;1985907;28;20025;-69
2022/09/21 01:03:58;;;;;;;18.60;9.93;;;;;;;7.79;100.00;102358.59;1985966;28;20382;-68
2022/09/21 01:04:56;;;;;;;19.50;9.70;;;;;;;7.78;100.00;102356.88;1985887;28;20025;-68
2022/09/21 01:05:55;;;;;;;20.92;9.75;;;;;;;7.80;100.00;102355.16;1993109;28;20034;-68
2022/09/21 01:06:57;;;;;;;21.80;9.80;;;;;;;7.80;100.00;102360.34;1993226;28;20032;-68
2022/09/21 01:07:59;;;;;;;18.08;9.65;;;;;;;7.79;100.00;102353.41;1985841;28;20036;-68
2022/09/21 01:08:58;;;;;;;18.70;9.57;;;;;;;7.77;100.00;102358.63;1985881;28;20025;-68
2022/09/21 01:10:02;;;;;;;24.70;9.77;;;;;;;7.77;100.00;102360.38;1993092;28;20069;-68
2022/09/21 01:11:58;;;;;;;20.38;9.32;;;;;;;7.75;100.00;102354.31;1990996;28;20024;-68
2022/09/21 01:13:32;;;;;;;22.00;9.02;;;;;;;7.70;100.00;102360.41;1985858;28;20067;-68
2022/09/21 01:14:50;;;;;;;21.75;9.25;;;;;;;7.68;100.00;102359.56;1985940;28;20053;-68
2022/09/21 01:16:16;;;;;;;18.83;8.93;;;;;;;7.68;100.00;102356.09;1985772;28;20117;-68
2022/09/21 01:17:29;;;;;;;16.95;9.27;;;;;;;7.67;100.00;102360.41;1985801;28;20483;-68
2022/09/21 01:18:50;;;;;;;15.77;9.00;;;;;;;7.66;100.00;102353.50;1985883;28;20397;-68
2022/09/21 01:20:43;;;;;;;18.42;8.32;;;;;;;7.65;100.00;102356.97;1985863;28;20027;-68
2022/09/21 01:22:33;;;;;;;16.60;8.38;;;;;;;7.69;100.00;102358.69;1978289;28;20065;-68
2022/09/21 01:23:49;;;;;;;;;;;;;;;7.65;100.00;102353.50;1986181;28;20024;-68
2022/09/21 01:25:31;;;;;;;15.68;7.90;;;;;;;7.64;100.00;102359.56;1993035;28;19930;-68
2022/09/21 01:26:44;;;;;;;14.40;8.40;;;;;;;7.64;100.00;102362.16;1984443;28;20090;-68
2022/09/21 01:28:03;;;;;;;20.80;8.75;;;;;;;7.68;100.00;102359.56;1985795;28;20032;-68
2022/09/21 01:29:50;;;;;;;14.68;8.90;;;;;;;7.70;100.00;102359.56;1985817;28;20036;-68
2022/09/21 01:30:53;;;;;;;15.15;8.45;;;;;;;7.70;100.00;102355.19;1969166;28;20034;-68
2022/09/21 01:32:08;;;;;;;20.45;9.27;;;;;;;7.72;100.00;102363.00;1980589;28;20040;-69
2022/09/21 01:33:06;;;;;;;20.63;9.80;;;;;;;7.70;100.00;102357.81;1985772;28;20456;-68
2022/09/21 01:34:14;;;;;;;18.08;9.73;;;;;;;7.72;100.00;102361.25;1985649;28;20040;-68
2022/09/21 01:35:42;;;;;;;18.73;9.52;;;;;;;7.72;100.00;102363.00;1985787;28;20407;-68
2022/09/21 01:36:43;;;;;;;20.35;9.82;;;;;;;7.70;100.00;102357.81;1981525;28;20400;-68
2022/09/21 01:37:52;;;;;;;20.25;9.45;;;;;;;7.71;100.00;102356.06;1992801;28;20028;-68
2022/09/21 01:39:00;;;;;;;22.67;9.73;;;;;;;7.70;100.00;102357.81;1992412;28;20396;-68
2022/09/21 01:40:06;;;;;;;15.57;9.55;;;;;;;7.70;100.00;102360.41;1985620;28;20025;-68
2022/09/21 01:41:11;;;;;;;18.63;9.25;;;;;;;7.71;100.00;102356.94;1983589;28;20021;-68
2022/09/21 01:42:12;;;;;;;20.80;10.05;;;;;;;7.72;100.00;102358.66;1985652;28;20486;-68
2022/09/21 01:43:24;;;;;;;17.95;9.43;;;;;;;7.71;100.00;102356.94;1993077;28;20383;-68
2022/09/21 01:44:31;;;;;;;16.40;9.40;;;;;;;7.72;100.00;102355.19;1991722;28;20032;-68
2022/09/21 01:45:39;;;;;;;16.77;9.02;;;;;;;7.73;100.00;102355.19;1985140;28;20060;-68
2022/09/21 01:46:37;;;;;;;15.30;8.57;;;;;;;7.74;100.00;102356.06;1985582;28;20434;-68
2022/09/21 01:47:40;;;;;;;21.25;9.23;;;;;;;7.74;100.00;102353.47;1985621;28;20443;-68
2022/09/21 01:48:46;;;;;;;19.35;9.18;;;;;;;7.75;100.00;102357.78;1985584;28;20112;-68
2022/09/21 01:49:52;;;;;;;14.93;9.45;;;;;;;7.75;100.00;102351.72;1985647;28;20422;-68
2022/09/21 01:50:56;;;;;;;18.83;9.30;;;;;;;7.73;100.00;102347.38;1985600;28;20104;-68
2022/09/21 01:52:11;;;;;;;24.35;9.77;;;;;;;7.74;100.00;102361.25;1985644;28;20046;-68
2022/09/21 01:53:25;;;;;;;18.05;9.25;;;;;;;7.73;100.00;102360.38;1985695;28;20488;-68
2022/09/21 01:54:35;;;;;;;22.33;9.18;;;;;;;7.73;100.00;102359.50;1985589;28;20028;-68
2022/09/21 01:55:54;;;;;;;22.10;9.32;;;;;;;7.73;100.00;102352.59;1985334;28;20069;-68
2022/09/21 01:57:42;;;;;;;21.85;9.52;;;;;;;7.72;100.00;102353.47;1985523;28;20032;-68
2022/09/21 01:58:53;;;;;;;21.77;9.35;;;;;;;7.70;100.00;102354.34;1985597;28;20029;-68
2022/09/21 02:00:00;;;;;;;16.52;8.90;;;;;;;7.69;100.00;102358.69;1985592;28;20032;-68
2022/09/21 02:00:59;;;;;;;22.10;9.70;;;;;;;7.69;100.00;102357.81;1985497;28;20052;-68
2022/09/21 02:02:11;;;;;;;18.10;10.00;;;;;;;7.69;100.00;102353.47;1985421;28;20044;-68
2022/09/21 02:03:28;;;;;;;16.65;8.98;;;;;;;7.68;100.00;102351.75;1985516;28;20050;-68
2022/09/21 02:04:26;;;;;;;15.93;8.80;;;;;;;7.65;100.00;102348.31;1985536;28;20515;-68
2022/09/21 02:05:29;;;;;;;16.73;9.13;;;;;;;7.65;100.00;102346.56;1985472;28;20034;-68
2022/09/21 02:06:29;;;;;;;18.00;8.48;;;;;;;7.67;100.00;102349.16;1985632;28;20029;-68
2022/09/21 02:07:27;;;;;;;13.55;8.32;;;;;;;7.65;100.00;102349.19;1985539;28;20043;-68
2022/09/21 02:08:25;;;;;;;15.38;8.50;;;;;;;7.65;100.00;102350.91;1992705;28;20033;-68
2022/09/21 02:09:24;;;;;;;17.77;8.88;;;;;;;7.65;100.00;102346.56;1992846;28;20028;-68
2022/09/21 02:10:38;;;;;;;14.00;8.82;;;;;;;7.65;100.00;102345.69;1984178;28;20067;-68
2022/09/21 02:11:42;;;;;;;16.50;8.88;;;;;;;7.62;100.00;102346.59;1985033;28;20091;-68
2022/09/21 02:12:40;;;;;;;18.42;9.80;;;;;;;7.59;100.00;102346.59;1985559;28;20057;-68
2022/09/21 02:13:44;;;;;;;16.02;9.40;;;;;;;7.63;100.00;102348.31;1985495;28;20596;-68
2022/09/21 02:14:42;;;;;;;23.38;9.63;;;;;;;7.61;100.00;102350.06;1992613;28;20024;-68
2022/09/21 02:16:11;;;;;;;22.30;9.07;;;;;;;7.59;100.00;102354.41;1992617;28;20041;-68
2022/09/21 02:17:53;;;;;;;17.88;9.20;;;;;;;7.55;100.00;102347.50;1989604;28;20040;-68
2022/09/21 02:19:22;;;;;;;16.75;8.82;;;;;;;7.51;100.00;102363.97;1992670;28;20028;-68
2022/09/21 02:20:29;;;;;;;16.90;8.95;;;;;;;7.49;100.00;102355.34;1992663;28;20415;-67
2022/09/21 02:21:40;;;;;;;18.52;10.60;;;;;;;7.49;100.00;102355.34;1992645;28;20032;-68
2022/09/21 02:23:21;;;;;;;22.25;8.98;;;;;;;7.45;100.00;102352.75;1991905;28;20526;-68
2022/09/21 02:24:48;;;;;;;18.92;9.38;;;;;;;7.39;100.00;102350.16;1992580;28;20027;-68
2022/09/21 02:25:56;;;;;;;20.52;9.20;;;;;;;7.36;100.00;102345.00;1989827;28;20016;-67
2022/09/21 02:27:01;;;;;;;15.48;9.07;;;;;;;7.39;100.00;102344.97;1985467;28;20082;-68
2022/09/21 02:28:10;;;;;;;16.67;9.25;;;;;;;7.40;100.00;102349.31;1985390;28;20083;-67
2022/09/21 02:29:22;;;;;;;15.95;9.07;;;;;;;7.39;100.00;102347.56;1985497;28;20028;-67
2022/09/21 02:30:25;;;;;;;15.63;9.02;;;;;;;7.34;100.00;102346.75;1985297;28;20087;-67
2022/09/21 02:31:58;;;;;;;18.33;9.43;;;;;;;7.31;100.00;102352.81;1985408;28;20485;-67
2022/09/21 02:33:25;;;;;;;20.80;9.00;;;;;;;7.28;100.00;102346.75;1985334;28;20130;-67
2022/09/21 02:34:46;;;;;;;15.35;8.98;;;;;;;7.22;100.00;102345.91;1985383;28;20038;-67
2022/09/21 02:36:07;;;;;;;16.95;8.82;;;;;;;7.17;100.00;102345.09;1985380;28;20051;-67
2022/09/21 02:37:34;;;;;;;18.25;9.38;;;;;;;7.14;100.00;102347.69;1985430;28;20025;-67
2022/09/21 02:39:00;;;;;;;20.25;10.73;;;;;;;7.09;100.00;102349.44;1985384;28;20025;-67
2022/09/21 02:40:20;;;;;;;23.83;9.35;;;;;;;7.04;100.00;102343.38;1974598;28;20128;-67
2022/09/21 02:41:25;;;;;;;;;;;;;;;7.02;100.00;102351.16;1984335;28;20376;-69
2022/09/21 02:42:35;;;;;;;18.05;9.00;;;;;;;6.97;100.00;102347.75;1985362;28;20311;-67
2022/09/21 02:43:42;;;;;;;20.42;9.90;;;;;;;6.94;100.00;102342.53;1985466;28;20385;-67
2022/09/21 02:44:53;;;;;;;18.42;9.85;;;;;;;6.90;100.00;102341.72;1985236;28;20032;-67
2022/09/21 02:45:59;;;;;;;27.80;10.27;;;;;;;6.89;100.00;102350.38;1985413;28;20054;-66
2022/09/21 02:47:08;;;;;;;15.40;9.68;;;;;;;6.89;100.00;102352.97;1985343;28;20033;-67
2022/09/21 02:48:17;;;;;;;18.42;10.25;;;;;;;6.88;100.00;102347.78;1985326;28;20024;-67
2022/09/21 02:49:26;;;;;;;21.58;9.85;;;;;;;6.87;100.00;102351.25;1985252;28;20040;-67
2022/09/21 02:50:40;;;;;;;17.15;10.73;;;;;;;6.89;100.00;102347.78;1985399;28;20059;-67
2022/09/21 02:51:49;;;;;;;20.58;10.23;;;;;;;6.85;100.00;102348.66;1985374;28;20047;-67
2022/09/21 02:52:48;;;;;;;24.05;10.65;;;;;;;6.80;100.00;102351.25;1985322;28;20051;-67
2022/09/21 02:53:49;;;;;;;21.95;10.80;;;;;;;6.80;100.00;102345.19;1985421;28;20611;-67
2022/09/21 02:54:52;;;;;;;23.02;11.20;;;;;;;6.79;100.00;102346.06;1985340;28;20070;-67
2022/09/21 02:55:51;;;;;;;21.15;11.43;;;;;;;6.75;100.00;102347.81;1985435;28;20047;-67
2022/09/21 02:56:50;;;;;;;19.42;11.30;;;;;;;6.75;100.00;102344.34;1985193;28;20036;-67
2022/09/21 02:57:49;;;;;;;22.95;11.20;;;;;;;6.73;100.00;102340.88;1985429;28;20432;-67
2022/09/21 02:58:53;;;;;;;23.15;11.88;;;;;;;6.72;100.00;102346.94;1985310;28;20056;-67
2022/09/21 02:59:51;;;;;;;25.08;11.40;;;;;;;6.70;100.00;102349.53;1992379;28;20016;-67
2022/09/21 03:00:49;;;;;;;24.80;11.77;;;;;;;6.70;100.00;102340.03;1992611;28;20063;-67
2022/09/21 03:01:47;;;;;;;27.33;11.70;;;;;;;6.70;100.00;102354.72;1985864;28;20025;-67
2022/09/21 03:02:45;;;;;;;23.77;11.38;;;;;;;6.70;100.00;102350.41;1985435;28;20051;-68
2022/09/21 03:03:43;;;;;;;22.80;11.55;;;;;;;6.67;100.00;102345.22;1992473;28;20020;-67
2022/09/21 03:04:46;;;;;;;22.63;11.73;;;;;;;6.68;100.00;102349.53;1992661;28;20028;-68
2022/09/21 03:05:50;;;;;;;24.48;11.65;;;;;;;6.65;100.00;102344.38;1985330;28;20096;-67
2022/09/21 03:06:48;;;;;;;21.33;11.27;;;;;;;6.66;100.00;102343.50;1985290;28;20025;-67
2022/09/21 03:07:45;;;;;;;27.65;11.70;;;;;;;6.68;100.00;102346.94;1985719;28;20079;-67
2022/09/21 03:08:42;;;;;;;26.50;12.38;;;;;;;6.67;100.00;102345.22;1986901;28;20111;-67
2022/09/21 03:09:40;;;;;;;24.45;11.75;;;;;;;6.66;100.00;102343.50;1993883;28;20377;-67
2022/09/21 03:10:39;;;;;;;19.67;11.70;;;;;;;6.64;100.00;102342.63;1991961;28;20052;-67
2022/09/21 03:11:36;;;;;;;29.35;12.23;;;;;;;6.64;100.00;102346.97;1987360;28;20028;-67
2022/09/21 03:12:34;;;;;;;29.08;12.32;;;;;;;6.61;100.00;102345.25;1986850;28;20052;-67
2022/09/21 03:13:32;;;;;;;27.30;12.93;;;;;;;6.61;100.00;102342.66;2001968;28;20024;-67
2022/09/21 03:14:31;;;;;;;26.20;12.48;;;;;;;6.61;100.00;102347.84;2002001;28;20046;-67
2022/09/21 03:15:29;;;;;;;25.90;12.68;;;;;;;6.61;100.00;102349.56;1987554;28;20456;-67
2022/09/21 03:16:28;;;;;;;27.33;13.23;;;;;;;6.63;100.00;102353.88;1986781;28;20029;-67
2022/09/21 03:17:26;;;;;;;26.20;13.48;;;;;;;6.62;100.00;102346.97;1986806;28;20472;-67
2022/09/21 03:18:24;;;;;;;27.45;13.48;;;;;;;6.67;100.00;102354.75;1986747;28;20036;-67
2022/09/21 03:19:21;;;;;;;27.52;12.95;;;;;;;6.63;100.00;102353.88;1986779;28;20104;-67
2022/09/21 03:20:18;;;;;;;32.92;14.98;;;;;;;6.62;100.00;102349.56;1986669;28;20086;-67
2022/09/21 03:21:16;;;;;;;29.75;13.80;;;;;;;6.62;100.00;102349.56;1986583;28;20038;-67
2022/09/21 03:22:13;;;;;;;29.70;14.10;;;;;;;6.58;100.00;102353.03;1986620;28;20032;-67
2022/09/21 03:23:12;;;;;;;29.48;14.18;;;;;;;6.57;100.00;102348.72;1986714;28;20107;-67
2022/09/21 03:24:09;;;;;;;29.33;13.93;;;;;;;6.58;100.00;102355.63;1986683;28;20055;-67
2022/09/21 03:25:09;;;;;;;29.13;14.15;;;;;;;6.55;100.00;102353.03;1986743;28;20468;-67
2022/09/21 03:26:07;;;;;;;32.30;14.32;;;;;;;6.53;100.00;102352.16;1993877;28;20513;-68
2022/09/21 03:27:05;;;;;;;26.42;13.65;;;;;;;6.51;100.00;102352.19;1994081;28;20121;-67
2022/09/21 03:28:03;;;;;;;31.33;13.73;;;;;;;6.48;100.00;102351.28;1987274;28;20415;-67
2022/09/21 03:29:02;;;;;;;30.75;13.48;;;;;;;6.47;100.00;102352.16;1986637;28;20044;-68
2022/09/21 03:29:59;;;;;;;29.02;14.35;;;;;;;6.45;100.00;102354.75;1993819;28;20017;-67
2022/09/21 03:30:57;;;;;;;31.45;13.65;;;;;;;6.44;100.00;102355.63;1993803;28;20086;-67
2022/09/21 03:31:54;;;;;;;32.30;13.75;;;;;;;6.42;100.00;102353.03;1987195;28;20032;-67
2022/09/21 03:32:53;;;;;;;27.63;13.15;;;;;;;6.42;100.00;102355.63;1986596;28;20376;-67
2022/09/21 03:33:51;;;;;;;32.50;14.65;;;;;;;6.44;100.00;102351.28;1986541;28;20037;-67
2022/09/21 03:34:49;;;;;;;38.97;14.90;;;;;;;6.42;100.00;102355.63;1993816;28;20020;-67
2022/09/21 03:35:48;;;;;;;29.40;13.77;;;;;;;6.42;100.00;102350.44;1993901;28;20090;-68
2022/09/21 03:36:47;;;;;;;27.17;13.88;;;;;;;6.41;100.00;102353.91;1987150;28;20025;-67
2022/09/21 03:37:45;;;;;;;33.63;14.48;;;;;;;6.40;100.00;102352.16;1986645;28;20021;-67
2022/09/21 03:38:43;;;;;;;29.52;13.93;;;;;;;6.40;100.00;102359.94;1986648;28;20100;-67
2022/09/21 03:39:40;;;;;;;31.55;13.63;;;;;;;6.39;100.00;102354.75;1986734;28;20468;-67
2022/09/21 03:40:37;;;;;;;36.33;14.63;;;;;;;6.38;100.00;102359.09;1984465;28;20099;-68
2022/09/21 03:41:35;;;;;;;34.80;14.18;;;;;;;6.37;100.00;102359.94;1986639;28;20023;-68
2022/09/21 03:42:33;;;;;;;31.67;15.00;;;;;;;6.38;100.00;102359.09;1993805;28;20074;-67
2022/09/21 03:43:31;;;;;;;32.28;14.95;;;;;;;6.38;100.00;102364.28;1993799;28;20047;-67
2022/09/21 03:44:29;;;;;;;28.77;14.10;;;;;;;6.38;100.00;102366.88;1987219;28;20036;-67
2022/09/21 03:45:26;;;;;;;33.42;15.05;;;;;;;6.40;100.00;102369.47;1986359;28;20036;-67
2022/09/21 03:46:23;;;;;;;33.08;14.73;;;;;;;6.38;100.00;102364.28;1986583;28;20063;-67
2022/09/21 03:47:21;;;;;;;32.53;14.77;;;;;;;6.39;100.00;102371.19;1986513;28;20054;-67
2022/09/21 03:48:19;;;;;;;31.50;14.80;;;;;;;6.39;100.00;102368.59;1986610;28;20511;-67
2022/09/21 03:49:17;;;;;;;39.42;15.45;;;;;;;6.39;100.00;102370.31;1993701;28;20028;-68
2022/09/21 03:50:15;;;;;;;35.05;15.38;;;;;;;6.38;100.00;102374.66;1993864;28;20029;-67
2022/09/21 03:51:13;;;;;;;38.28;16.55;;;;;;;6.40;100.00;102378.09;1987113;28;20365;-67
2022/09/21 03:52:11;;;;;;;39.50;15.95;;;;;;;6.39;100.00;102376.38;1986659;28;20035;-67
2022/09/21 03:53:09;;;;;;;39.00;16.73;;;;;;;6.37;100.00;102372.91;1993678;28;20028;-67
2022/09/21 03:54:06;;;;;;;38.30;15.30;;;;;;;6.36;100.00;102373.78;1993743;28;20035;-68
2022/09/21 03:55:07;;;;;;;36.60;14.48;;;;;;;6.35;100.00;102373.78;1987225;28;20484;-68
2022/09/21 03:56:04;;;;;;;33.47;13.90;;;;;;;6.33;100.00;102371.16;1986455;28;20472;-67
2022/09/21 03:57:02;;;;;;;30.42;15.02;;;;;;;6.33;100.00;102371.16;1986550;28;20043;-68
2022/09/21 03:58:00;;;;;;;25.88;13.85;;;;;;;6.32;100.00;102374.63;1986353;28;20465;-67
2022/09/21 03:58:57;;;;;;;33.45;14.68;;;;;;;6.32;100.00;102374.63;1986465;28;20063;-67
2022/09/21 03:59:54;;;;;;;32.63;13.85;;;;;;;6.33;100.00;102375.50;1986357;28;20479;-67
2022/09/21 04:00:53;;;;;;;30.13;13.32;;;;;;;6.33;100.00;102372.91;1986487;28;20561;-67
2022/09/21 04:01:50;;;;;;;29.80;13.55;;;;;;;6.33;100.00;102376.34;1986449;28;20024;-67
2022/09/21 04:02:48;;;;;;;29.40;13.65;;;;;;;6.33;100.00;102376.34;1986468;28;20028;-67
2022/09/21 04:03:45;;;;;;;30.70;13.65;;;;;;;6.32;100.00;102372.03;1986249;28;20108;-67
2022/09/21 04:04:42;;;;;;;29.73;14.52;;;;;;;6.35;100.00;102376.38;1986471;28;20031;-67
2022/09/21 04:05:40;;;;;;;28.45;13.10;;;;;;;6.37;100.00;102372.91;1986437;28;20042;-67
2022/09/21 04:06:37;;;;;;;31.42;14.45;;;;;;;6.35;100.00;102379.84;1986379;28;20025;-67
2022/09/21 04:07:36;;;;;;;31.55;14.70;;;;;;;6.36;100.00;102371.19;1986479;28;20052;-67
2022/09/21 04:08:33;;;;;;;33.40;14.73;;;;;;;6.36;100.00;102370.34;1993581;28;20119;-67
2022/09/21 04:09:31;;;;;;;32.75;15.02;;;;;;;6.37;100.00;102375.50;1993727;28;20020;-67
2022/09/21 04:10:32;;;;;;;37.95;15.07;;;;;;;6.38;100.00;102372.06;1985651;28;20062;-67
2022/09/21 04:11:32;;;;;;;33.28;14.07;;;;;;;6.38;100.00;102377.25;1986437;28;20053;-67
2022/09/21 04:12:30;;;;;;;30.63;14.43;;;;;;;6.38;100.00;102373.78;1986330;28;20027;-67
2022/09/21 04:13:27;;;;;;;35.30;14.48;;;;;;;6.39;100.00;102376.38;1986348;28;20393;-67
2022/09/21 04:14:25;;;;;;;31.55;14.27;;;;;;;6.40;100.00;102375.50;1986323;28;20048;-67
2022/09/21 04:15:22;;;;;;;32.72;15.48;;;;;;;6.42;100.00;102371.19;1986141;28;20036;-67
2022/09/21 04:16:20;;;;;;;29.85;13.95;;;;;;;6.45;100.00;102370.31;1986339;28;20045;-68
2022/09/21 04:17:18;;;;;;;33.53;14.77;;;;;;;6.48;100.00;102370.31;1986270;28;20048;-67
2022/09/21 04:18:15;;;;;;;30.95;14.70;;;;;;;6.49;100.00;102368.56;1986355;28;20109;-67
2022/09/21 04:19:13;;;;;;;32.30;15.05;;;;;;;6.49;100.00;102366.84;1986071;28;20369;-67
2022/09/21 04:20:11;;;;;;;33.00;15.25;;;;;;;6.51;100.00;102364.25;1986376;28;20388;-67
2022/09/21 04:21:08;;;;;;;37.63;15.27;;;;;;;6.51;100.00;102370.34;1993435;28;20059;-67
2022/09/21 04:22:06;;;;;;;30.35;14.70;;;;;;;6.51;100.00;102364.25;1993493;28;20033;-67
2022/09/21 04:23:04;;;;;;;33.95;14.68;;;;;;;6.52;100.00;102371.19;1986873;28;20025;-67
2022/09/21 04:24:03;;;;;;;30.10;14.13;;;;;;;6.51;100.00;102366.88;1986375;28;20031;-67
2022/09/21 04:25:00;;;;;;;39.17;15.32;;;;;;;6.52;100.00;102366.88;1986248;28;20021;-67
2022/09/21 04:25:58;;;;;;;34.35;15.65;;;;;;;6.53;100.00;102373.78;1986348;28;20032;-67
2022/09/21 04:26:55;;;;;;;33.28;14.75;;;;;;;6.54;100.00;102375.50;1986197;28;20036;-67
2022/09/21 04:27:53;;;;;;;33.20;15.70;;;;;;;6.55;100.00;102376.38;1986342;28;20058;-67
2022/09/21 04:28:52;;;;;;;35.65;15.05;;;;;;;6.55;100.00;102378.97;1986265;28;20024;-68
2022/09/21 04:29:49;;;;;;;32.38;14.93;;;;;;;6.56;100.00;102375.50;1986199;28;20389;-67
2022/09/21 04:30:47;;;;;;;40.92;16.05;;;;;;;6.54;100.00;102370.31;1986153;28;20112;-67
2022/09/21 04:31:44;;;;;;;34.40;15.40;;;;;;;6.57;100.00;102374.66;1986108;28;20023;-68
2022/09/21 04:32:42;;;;;;;32.25;16.00;;;;;;;6.60;100.00;102373.78;1986206;28;20028;-67
2022/09/21 04:33:40;;;;;;;38.33;16.92;;;;;;;6.62;100.00;102369.44;1986178;28;20484;-67
2022/09/21 04:34:38;;;;;;;38.03;15.43;;;;;;;6.63;100.00;102369.44;1986143;28;20047;-68
2022/09/21 04:35:36;;;;;;;38.63;16.38;;;;;;;6.63;100.00;102369.44;1986117;28;20105;-67
2022/09/21 04:36:33;;;;;;;37.97;15.45;;;;;;;6.65;100.00;102366.84;1986301;28;20025;-68
2022/09/21 04:37:31;;;;;;;30.42;15.68;;;;;;;6.65;100.00;102372.03;1986151;28;20031;-68
2022/09/21 04:38:30;;;;;;;35.83;16.05;;;;;;;6.65;100.00;102372.03;1986230;28;20029;-67
2022/09/21 04:39:28;;;;;;;31.17;15.13;;;;;;;6.62;100.00;102378.09;1986176;28;20033;-67
2022/09/21 04:40:25;;;;;;;32.47;14.98;;;;;;;6.65;100.00;102377.22;1985491;28;20020;-67
2022/09/21 04:41:23;;;;;;;33.67;15.10;;;;;;;6.64;100.00;102378.94;1984840;28;20035;-68
2022/09/21 04:42:20;;;;;;;34.88;15.25;;;;;;;6.64;100.00;102378.94;1986181;28;20036;-67
2022/09/21 04:43:17;;;;;;;33.72;14.40;;;;;;;6.64;100.00;102376.34;1986122;28;20033;-67
2022/09/21 04:44:17;;;;;;;32.65;15.38;;;;;;;6.64;100.00;102371.16;1986171;28;20115;-68
2022/09/21 04:45:14;;;;;;;31.17;15.45;;;;;;;6.65;100.00;102370.31;1986011;28;20029;-68
2022/09/21 04:46:15;;;;;;;33.72;15.05;;;;;;;6.65;100.00;102378.09;1986028;28;20381;-67
2022/09/21 04:47:13;;;;;;;34.45;14.82;;;;;;;6.66;100.00;102376.34;1986161;28;20595;-67
2022/09/21 04:48:10;;;;;;;34.17;14.50;;;;;;;6.65;100.00;102378.09;1986088;28;20074;-68
2022/09/21 04:49:08;;;;;;;32.30;14.68;;;;;;;6.66;100.00;102374.63;1986158;28;20035;-67
2022/09/21 04:50:06;;;;;;;32.63;14.93;;;;;;;6.67;100.00;102375.50;1986106;28;20029;-67
2022/09/21 04:51:06;;;;;;;31.27;14.80;;;;;;;6.69;100.00;102374.63;1986163;28;20115;-67